Ipanguacu, Brazil
Current Conditions -  °F | °C
As of 10:00 AM on Sunday 21 Dec 2014 (Local Time) from SBNT Reporting Station
Broken Clouds Broken Clouds  
Wind Chill: 84°   Ceiling: 2500
Heat Index: 88°   Visibility: 6mi
Dew Point: 70°   Wind: 17mph
Humidity: 62%   Direction: 120°ESE
Pressure: 29.97"   Gusts: NA
Location:  5.5°S, 36.85°W
Report Text: SBNT 211300Z 12015KT 9999 BKN025 29/21 Q1015
Loading
Personal Weather Stations






























Interactive Weather Map New forecast layout! Learn more

10-Day Weather Forecast

Advertisements
Track Severe Weather on mobile